createdAt,value
2023-01-23T00:01:34.661Z,101542.69
2023-01-23T00:04:01.513Z,101552.19
2023-01-23T00:06:28.637Z,101552.56
2023-01-23T00:08:56.660Z,101550.13
2023-01-23T00:11:25.987Z,101541.66
2023-01-23T00:13:52.972Z,101551.03
2023-01-23T00:16:21.307Z,101545.91
2023-01-23T00:18:48.190Z,101554.91
2023-01-23T00:21:17.551Z,101551.72
2023-01-23T00:23:47.129Z,101553.19
2023-01-23T00:26:17.388Z,101550.38
2023-01-23T00:28:44.797Z,101551.66
2023-01-23T00:31:15.399Z,101560.81
2023-01-23T00:33:43.387Z,101557.81
2023-01-23T00:36:10.643Z,101550.06
2023-01-23T00:38:38.054Z,101553.50
2023-01-23T00:41:08.278Z,101554.25
2023-01-23T00:43:35.007Z,101560.38
2023-01-23T00:46:01.941Z,101555.91
2023-01-23T00:48:28.697Z,101556.16
2023-01-23T00:50:55.164Z,101563.47
2023-01-23T00:53:22.261Z,101568.03
2023-01-23T00:55:50.353Z,101565.94
2023-01-23T00:58:17.074Z,101565.38
2023-01-23T01:00:43.724Z,101566.72
2023-01-23T01:03:10.272Z,101570.72
2023-01-23T01:05:36.796Z,101569.88
2023-01-23T01:08:03.846Z,101568.31
2023-01-23T01:10:32.767Z,101567.22
2023-01-23T01:13:02.095Z,101577.94
2023-01-23T01:15:29.263Z,101584.00
2023-01-23T01:17:55.735Z,101575.53
2023-01-23T01:20:23.816Z,101587.19
2023-01-23T01:22:50.785Z,101591.00
2023-01-23T01:25:17.428Z,101592.81
2023-01-23T01:27:43.896Z,101599.66
2023-01-23T01:30:12.280Z,101593.41
2023-01-23T01:32:40.169Z,101593.66
2023-01-23T01:35:07.299Z,101597.22
2023-01-23T01:37:34.828Z,101598.22
2023-01-23T01:40:01.557Z,101597.28
2023-01-23T01:42:28.414Z,101603.34
2023-01-23T01:44:59.815Z,101606.84
2023-01-23T01:47:26.479Z,101600.97
2023-01-23T01:49:56.174Z,101612.59
2023-01-23T01:52:23.411Z,101611.75
2023-01-23T01:54:57.017Z,101611.06
2023-01-23T01:57:35.974Z,101612.09
2023-01-23T02:00:08.761Z,101625.22
2023-01-23T02:02:38.784Z,101621.97
2023-01-23T02:05:14.653Z,101624.91
2023-01-23T02:07:55.158Z,101640.03
2023-01-23T02:10:23.079Z,101634.06
2023-01-23T02:12:51.574Z,101632.31
2023-01-23T02:15:23.446Z,101634.72
2023-01-23T02:17:51.537Z,101647.03
2023-01-23T02:20:22.622Z,101640.72
2023-01-23T02:23:12.582Z,101644.22
2023-01-23T02:25:53.350Z,101650.03
2023-01-23T02:28:20.567Z,101653.03
2023-01-23T02:30:48.039Z,101639.22
2023-01-23T02:33:21.050Z,101643.63
2023-01-23T02:35:48.299Z,101643.78
2023-01-23T02:38:15.061Z,101646.47
2023-01-23T02:40:42.817Z,101656.44
2023-01-23T02:43:13.912Z,101654.94
2023-01-23T02:45:40.519Z,101655.19
2023-01-23T02:48:08.881Z,101655.84
2023-01-23T02:50:35.392Z,101652.38
2023-01-23T02:53:02.446Z,101653.88
2023-01-23T02:55:33.393Z,101657.78
2023-01-23T02:58:19.736Z,101660.34
2023-01-23T03:00:47.744Z,101662.19
2023-01-23T03:03:15.980Z,101651.78
2023-01-23T03:05:42.777Z,101662.00
2023-01-23T03:08:09.581Z,101657.38
2023-01-23T03:10:36.097Z,101656.34
2023-01-23T03:13:04.595Z,101648.72
2023-01-23T03:15:31.529Z,101637.81
2023-01-23T03:17:58.243Z,101634.06
2023-01-23T03:20:26.781Z,101632.53
2023-01-23T03:22:54.702Z,101633.47
2023-01-23T03:25:21.240Z,101629.88
2023-01-23T03:27:48.456Z,101626.53
2023-01-23T03:30:16.946Z,101630.47
2023-01-23T03:32:44.661Z,101630.97
2023-01-23T03:35:14.289Z,101625.97
2023-01-23T03:37:40.795Z,101627.47
2023-01-23T03:40:26.662Z,101646.25
2023-01-23T03:42:53.164Z,101642.03
2023-01-23T03:45:19.561Z,101648.09
2023-01-23T03:47:46.124Z,101656.00
2023-01-23T03:50:22.294Z,101657.09
2023-01-23T03:52:49.099Z,101658.59
2023-01-23T03:55:15.904Z,101660.50
2023-01-23T03:57:42.298Z,101662.41
2023-01-23T04:00:09.538Z,101660.56
2023-01-23T04:02:36.144Z,101665.50
2023-01-23T04:05:02.643Z,101673.91
2023-01-23T04:07:29.185Z,101673.97
2023-01-23T04:09:56.155Z,101674.91
2023-01-23T04:12:22.687Z,101675.31
2023-01-23T04:14:49.100Z,101676.47
2023-01-23T04:17:16.001Z,101673.00
2023-01-23T04:19:42.506Z,101686.22
2023-01-23T04:22:10.390Z,101692.44
2023-01-23T04:24:36.862Z,101690.03
2023-01-23T04:27:04.323Z,101703.09
2023-01-23T04:29:31.000Z,101696.19
2023-01-23T04:31:57.519Z,101698.38
2023-01-23T04:34:23.895Z,101696.63
2023-01-23T04:36:50.316Z,101699.03
2023-01-23T04:39:16.878Z,101698.53
2023-01-23T04:41:43.278Z,101693.63
2023-01-23T04:44:22.107Z,101701.75
2023-01-23T04:46:50.711Z,101709.28
2023-01-23T04:49:18.711Z,101700.28
2023-01-23T04:51:48.036Z,101707.28
2023-01-23T04:54:14.896Z,101710.19
2023-01-23T04:56:41.467Z,101715.09
2023-01-23T04:59:09.096Z,101715.50
2023-01-23T05:01:36.302Z,101710.94
2023-01-23T05:04:02.919Z,101704.38
2023-01-23T05:06:29.589Z,101710.00
2023-01-23T05:08:55.959Z,101709.41
2023-01-23T05:11:22.431Z,101710.19
2023-01-23T05:13:48.925Z,101707.94
2023-01-23T05:16:15.703Z,101705.59
2023-01-23T05:18:42.162Z,101705.59
2023-01-23T05:21:08.564Z,101705.84
2023-01-23T05:23:35.091Z,101707.75
2023-01-23T05:26:01.677Z,101707.19
2023-01-23T05:28:28.117Z,101718.34
2023-01-23T05:30:54.663Z,101708.34
2023-01-23T05:33:21.317Z,101709.59
2023-01-23T05:35:48.884Z,101709.50
2023-01-23T05:38:15.272Z,101712.09
2023-01-23T05:40:41.876Z,101714.25
2023-01-23T05:43:13.540Z,101726.31
2023-01-23T05:45:39.930Z,101722.06
2023-01-23T05:48:06.782Z,101720.06
2023-01-23T05:50:34.486Z,101721.81
2023-01-23T05:53:01.076Z,101725.81
2023-01-23T05:55:29.901Z,101721.16
2023-01-23T05:57:56.319Z,101730.22
2023-01-23T06:00:24.281Z,101736.97
2023-01-23T06:02:50.857Z,101741.53
2023-01-23T06:05:17.302Z,101743.38
2023-01-23T06:07:44.730Z,101746.28
2023-01-23T06:10:11.393Z,101752.38
2023-01-23T06:12:37.899Z,101744.53
2023-01-23T06:15:04.885Z,101740.63
2023-01-23T06:17:31.300Z,101741.16
2023-01-23T06:19:59.301Z,101743.91
2023-01-23T06:22:25.801Z,101745.88
2023-01-23T06:24:52.660Z,101744.72
2023-01-23T06:27:19.193Z,101743.31
2023-01-23T06:29:58.791Z,101750.81
2023-01-23T06:32:26.788Z,101753.81
2023-01-23T06:34:53.277Z,101755.28
2023-01-23T06:37:19.897Z,101749.31
2023-01-23T06:39:46.286Z,101755.81
2023-01-23T06:42:12.707Z,101764.53
2023-01-23T06:44:47.243Z,101762.19
2023-01-23T06:47:13.937Z,101767.41
2023-01-23T06:49:40.518Z,101775.25
2023-01-23T06:52:07.040Z,101776.00
2023-01-23T06:54:34.110Z,101785.06
2023-01-23T06:57:00.508Z,101783.72
2023-01-23T06:59:26.917Z,101781.16
2023-01-23T07:01:53.527Z,101785.94
2023-01-23T07:04:20.132Z,101792.81
2023-01-23T07:06:46.901Z,101793.28
2023-01-23T07:09:13.322Z,101799.78
2023-01-23T07:11:40.253Z,101796.41
2023-01-23T07:14:06.946Z,101805.31
2023-01-23T07:16:35.267Z,101815.66
2023-01-23T07:19:02.688Z,101815.41
2023-01-23T07:21:29.168Z,101822.88
2023-01-23T07:23:55.793Z,101827.72
2023-01-23T07:26:22.419Z,101833.75
2023-01-23T07:28:48.834Z,101840.91
2023-01-23T07:31:15.407Z,101844.06
2023-01-23T07:33:44.286Z,101844.06
2023-01-23T07:36:13.855Z,101851.22
2023-01-23T07:38:40.963Z,101854.19
2023-01-23T07:41:07.403Z,101852.44
2023-01-23T07:43:35.469Z,101855.38
2023-01-23T07:46:02.713Z,101855.47
2023-01-23T07:48:29.674Z,101868.19
2023-01-23T07:50:56.289Z,101872.91
2023-01-23T07:53:22.762Z,101871.25
2023-01-23T07:55:49.148Z,101867.41
2023-01-23T07:58:15.930Z,101866.25
2023-01-23T08:00:42.440Z,101876.75
2023-01-23T08:03:08.955Z,101873.94
2023-01-23T08:05:35.726Z,101876.91
2023-01-23T08:08:13.136Z,101879.16
2023-01-23T08:10:40.917Z,101878.44
2023-01-23T08:13:07.582Z,101881.84
2023-01-23T08:15:33.977Z,101880.31
2023-01-23T08:18:08.713Z,101875.00
2023-01-23T08:20:36.300Z,101887.06
2023-01-23T08:23:02.818Z,101889.50
2023-01-23T08:25:29.439Z,101888.41
2023-01-23T08:27:56.901Z,101882.28
2023-01-23T08:30:23.305Z,101891.59
2023-01-23T08:32:49.654Z,101889.78
2023-01-23T08:35:16.429Z,101896.03
2023-01-23T08:37:45.036Z,101888.94
2023-01-23T08:40:11.916Z,101888.75
2023-01-23T08:42:38.290Z,101891.16
2023-01-23T08:45:05.210Z,101881.53
2023-01-23T08:47:36.377Z,101878.53
2023-01-23T08:50:06.955Z,101882.59
2023-01-23T08:52:35.329Z,101891.69
2023-01-23T08:55:02.077Z,101888.44
2023-01-23T08:57:28.693Z,101893.69
2023-01-23T08:59:59.482Z,101892.28
2023-01-23T09:02:25.921Z,101900.53
2023-01-23T09:04:52.600Z,101894.03
2023-01-23T09:07:18.967Z,101901.69
2023-01-23T09:09:45.436Z,101903.00
2023-01-23T09:12:11.989Z,101898.91
2023-01-23T09:14:38.427Z,101893.16
2023-01-23T09:17:06.021Z,101893.88
2023-01-23T09:19:32.694Z,101900.34
2023-01-23T09:21:59.059Z,101905.44
2023-01-23T09:24:25.519Z,101913.84
2023-01-23T09:26:51.934Z,101914.09
2023-01-23T09:29:18.287Z,101910.69
2023-01-23T09:31:44.672Z,101922.34
2023-01-23T09:34:11.091Z,101918.94
2023-01-23T09:36:43.359Z,101920.41
2023-01-23T09:39:10.587Z,101925.50
2023-01-23T09:41:39.157Z,101913.25
2023-01-23T09:44:07.535Z,101920.44
2023-01-23T09:46:57.778Z,101912.31
2023-01-23T09:49:58.545Z,101912.31
2023-01-23T09:52:31.484Z,101908.69
2023-01-23T09:55:13.463Z,101908.94
2023-01-23T09:57:47.029Z,101902.94
2023-01-23T10:00:27.565Z,101898.19
2023-01-23T10:02:54.473Z,101901.19
2023-01-23T10:05:27.562Z,101897.81
2023-01-23T10:08:19.332Z,101894.34
2023-01-23T10:11:05.565Z,101893.91
2023-01-23T10:13:48.110Z,101886.09
2023-01-23T10:16:50.085Z,101888.28
2023-01-23T10:19:32.333Z,101885.94
2023-01-23T10:22:14.969Z,101891.91
2023-01-23T10:24:52.423Z,101883.16
2023-01-23T10:27:24.191Z,101889.78
2023-01-23T10:30:03.747Z,101891.44
2023-01-23T10:32:32.341Z,101888.88
2023-01-23T10:35:06.404Z,101888.66
2023-01-23T10:37:53.032Z,101884.31
2023-01-23T10:40:40.625Z,101882.75
2023-01-23T10:43:17.289Z,101887.25
2023-01-23T10:45:46.023Z,101883.66
2023-01-23T10:48:49.628Z,101886.41
2023-01-23T10:51:45.032Z,101873.53
2023-01-23T10:54:31.304Z,101875.69
2023-01-23T10:57:22.174Z,101878.97
2023-01-23T10:59:57.866Z,101875.56
2023-01-23T11:02:32.788Z,101890.69
2023-01-23T11:05:01.984Z,101885.06
2023-01-23T11:07:33.417Z,101887.13
2023-01-23T11:10:05.331Z,101890.72
2023-01-23T11:12:34.465Z,101886.25
2023-01-23T11:15:22.969Z,101887.00
2023-01-23T11:17:51.127Z,101881.19
2023-01-23T11:20:31.845Z,101880.75
2023-01-23T11:23:07.031Z,101877.16
2023-01-23T11:25:40.493Z,101888.63
2023-01-23T11:28:27.829Z,101878.44
2023-01-23T11:31:15.971Z,101874.28
2023-01-23T11:33:52.111Z,101882.88
2023-01-23T11:36:18.466Z,101879.59
2023-01-23T11:39:05.043Z,101885.22
2023-01-23T11:41:34.202Z,101876.75
2023-01-23T11:44:10.024Z,101874.06
2023-01-23T11:46:46.449Z,101881.47
2023-01-23T11:49:15.870Z,101879.84
2023-01-23T11:51:49.136Z,101873.25
2023-01-23T11:54:34.781Z,101865.03
2023-01-23T11:57:03.477Z,101865.03
2023-01-23T11:59:53.151Z,101866.13
2023-01-23T12:02:46.982Z,101857.31
2023-01-23T12:05:32.248Z,101865.03
2023-01-23T12:08:36.664Z,101865.16
2023-01-23T12:11:14.212Z,101866.03
2023-01-23T12:13:48.600Z,101858.94
2023-01-23T12:16:30.049Z,101862.78
2023-01-23T12:19:21.592Z,101855.34
2023-01-23T12:21:56.635Z,101856.47
2023-01-23T12:24:53.622Z,101857.47
2023-01-23T12:27:27.361Z,101860.34
2023-01-23T12:30:15.739Z,101858.25
2023-01-23T12:32:52.980Z,101863.78
2023-01-23T12:35:37.556Z,101857.66
2023-01-23T12:38:09.797Z,101858.78
2023-01-23T12:41:12.496Z,101860.84
2023-01-23T12:43:49.397Z,101856.56
2023-01-23T12:46:42.261Z,101859.00
2023-01-23T12:49:29.450Z,101860.88
2023-01-23T12:52:11.541Z,101860.03
2023-01-23T12:54:43.846Z,101858.44
2023-01-23T12:57:10.968Z,101862.44
2023-01-23T12:59:54.604Z,101866.72
2023-01-23T13:02:40.817Z,101864.19
2023-01-23T13:05:19.822Z,101867.09
2023-01-23T13:08:01.633Z,101874.47
2023-01-23T13:11:12.008Z,101867.38
2023-01-23T13:13:40.452Z,101870.59
2023-01-23T13:16:18.594Z,101876.00
2023-01-23T13:19:12.037Z,101878.81
2023-01-23T13:21:57.294Z,101880.56
2023-01-23T13:24:48.639Z,101875.41
2023-01-23T13:27:40.026Z,101872.25
2023-01-23T13:30:22.348Z,101877.09
2023-01-23T13:32:50.827Z,101876.44
2023-01-23T13:35:39.993Z,101881.94
2023-01-23T13:38:29.519Z,101881.34
2023-01-23T13:41:05.315Z,101873.25
2023-01-23T13:43:50.198Z,101872.78
2023-01-23T13:46:40.560Z,101878.13
2023-01-23T14:27:36.758Z,101881.44
2023-01-23T14:30:17.095Z,101881.94
2023-01-23T14:32:45.859Z,101885.44
2023-01-23T14:35:23.942Z,101897.50
2023-01-23T14:37:52.598Z,101893.41
2023-01-23T14:40:27.113Z,101894.78
2023-01-23T14:43:07.768Z,101898.31
2023-01-23T14:45:35.619Z,101896.50
2023-01-23T14:48:06.706Z,101895.78
2023-01-23T14:50:34.207Z,101893.63
2023-01-23T14:53:05.970Z,101890.63
2023-01-23T14:55:36.826Z,101885.78
2023-01-23T14:58:03.872Z,101892.28
2023-01-23T15:00:34.319Z,101894.13
2023-01-23T15:03:04.489Z,101888.38
2023-01-23T15:05:32.974Z,101895.78
2023-01-23T15:08:03.512Z,101884.13
2023-01-23T15:10:32.398Z,101887.13
2023-01-23T15:13:22.669Z,101888.25
2023-01-23T15:15:56.384Z,101886.44
2023-01-23T15:18:24.881Z,101883.28
2023-01-23T15:20:59.070Z,101889.88
2023-01-23T15:23:31.312Z,101891.25
2023-01-23T15:26:25.577Z,101901.25
2023-01-23T15:28:55.106Z,101892.75
2023-01-23T15:31:29.758Z,101898.50
2023-01-23T15:34:10.021Z,101898.25
2023-01-23T15:36:36.479Z,101896.75
2023-01-23T15:39:03.557Z,101903.19
2023-01-23T15:42:00.496Z,101900.25
2023-01-23T15:44:31.572Z,101911.72
2023-01-23T15:47:01.702Z,101907.25
2023-01-23T15:49:28.959Z,101909.47
2023-01-23T15:52:00.138Z,101907.13
2023-01-23T15:54:31.573Z,101915.22
2023-01-23T15:57:06.955Z,101916.88
2023-01-23T15:59:35.574Z,101907.97
2023-01-23T16:02:02.146Z,101914.31
2023-01-23T16:04:32.269Z,101928.50
2023-01-23T16:07:06.792Z,101923.13
2023-01-23T16:09:37.013Z,101922.53
2023-01-23T16:12:10.522Z,101927.03
2023-01-23T16:14:36.923Z,101926.78
2023-01-23T16:17:15.869Z,101942.81
2023-01-23T16:19:43.417Z,101933.75
2023-01-23T16:22:13.992Z,101932.00
2023-01-23T16:24:41.559Z,101937.69
2023-01-23T16:27:27.805Z,101934.94
2023-01-23T16:29:55.303Z,101942.25
2023-01-23T16:32:22.156Z,101937.09
2023-01-23T16:34:51.487Z,101943.00
2023-01-23T16:37:18.694Z,101943.34
2023-01-23T16:39:46.816Z,101955.34
2023-01-23T16:42:19.990Z,101952.94
2023-01-23T16:44:47.816Z,101947.19
2023-01-23T16:47:15.537Z,101950.28
2023-01-23T16:49:52.196Z,101949.84
2023-01-23T16:52:24.411Z,101954.94
2023-01-23T16:54:52.127Z,101959.66
2023-01-23T16:57:20.366Z,101954.16
2023-01-23T16:59:48.198Z,101951.84
2023-01-23T17:02:25.339Z,101955.56
2023-01-23T17:04:55.378Z,101954.81
2023-01-23T17:07:22.094Z,101958.13
2023-01-23T17:09:49.291Z,101963.88
2023-01-23T17:12:22.117Z,101967.22
2023-01-23T17:14:49.155Z,101970.53
2023-01-23T17:17:19.760Z,101960.63
2023-01-23T17:19:46.501Z,101960.47
2023-01-23T17:22:34.788Z,101965.81
2023-01-23T17:25:01.148Z,101969.81
2023-01-23T17:27:27.535Z,101971.63
2023-01-23T17:29:54.640Z,101970.53
2023-01-23T17:32:29.827Z,101977.94
2023-01-23T17:34:57.646Z,101972.69
2023-01-23T17:37:24.236Z,101980.44
2023-01-23T17:39:50.992Z,101983.63
2023-01-23T17:42:22.169Z,101981.00
2023-01-23T17:44:49.449Z,101979.81
2023-01-23T17:47:17.508Z,101974.63
2023-01-23T17:49:46.766Z,101976.53
2023-01-23T17:52:13.197Z,101974.84
2023-01-23T17:54:39.578Z,101978.63
2023-01-23T17:57:05.961Z,101984.38
2023-01-23T17:59:32.337Z,101976.88
2023-01-23T18:02:00.997Z,101974.72
2023-01-23T18:04:27.335Z,101981.13
2023-01-23T18:06:53.897Z,101978.44
2023-01-23T18:09:21.263Z,101981.63
2023-01-23T18:11:52.667Z,101976.78
2023-01-23T18:14:19.061Z,101974.97
2023-01-23T18:16:45.932Z,101989.31
2023-01-23T18:19:21.117Z,101991.88
2023-01-23T18:21:51.327Z,101981.81
2023-01-23T18:24:27.409Z,101996.50
2023-01-23T18:26:59.809Z,101984.56
2023-01-23T18:29:57.993Z,101992.56
2023-01-23T18:32:37.261Z,101985.31
2023-01-23T18:35:25.778Z,101983.50
2023-01-23T18:38:15.174Z,101985.06
2023-01-23T18:40:47.872Z,101980.66
2023-01-23T18:43:34.798Z,101980.66
2023-01-23T18:46:01.791Z,101986.63
2023-01-23T18:48:29.410Z,101980.41
2023-01-23T18:51:34.940Z,101984.31
2023-01-23T18:54:29.884Z,101978.97
2023-01-23T18:57:02.348Z,101976.13
2023-01-23T18:59:28.864Z,101987.75
2023-01-23T19:02:21.870Z,101988.53
2023-01-23T19:05:19.319Z,101982.03
2023-01-23T19:07:46.814Z,101977.84
2023-01-23T19:10:18.226Z,101979.28
2023-01-23T19:13:07.648Z,101979.28
2023-01-23T19:15:41.798Z,101978.53
2023-01-23T19:18:50.543Z,101982.22
2023-01-23T19:21:26.714Z,101986.47
2023-01-23T19:24:06.777Z,101979.66
2023-01-23T19:26:35.480Z,101982.75
2023-01-23T19:29:19.957Z,101988.97
2023-01-23T19:32:03.705Z,101989.63
2023-01-23T19:34:31.644Z,101987.13
2023-01-23T19:36:58.841Z,101980.41
2023-01-23T19:39:25.652Z,101986.28
2023-01-23T19:41:53.569Z,101991.78
2023-01-23T19:44:24.968Z,101998.38
2023-01-23T19:46:52.335Z,101992.84
2023-01-23T19:49:18.935Z,102001.25
2023-01-23T19:51:45.704Z,102005.91
2023-01-23T19:54:13.424Z,101997.28
2023-01-23T19:56:41.102Z,102008.06
2023-01-23T19:59:07.596Z,101996.13
2023-01-23T20:01:38.439Z,102006.75
2023-01-23T20:04:12.523Z,102003.50
2023-01-23T20:06:40.752Z,102008.59
2023-01-23T20:09:08.401Z,102006.19
2023-01-23T20:11:36.425Z,102012.44
2023-01-23T20:14:03.728Z,102017.44
2023-01-23T20:16:30.264Z,102011.50
2023-01-23T20:18:56.877Z,102010.41
2023-01-23T20:21:25.170Z,102009.84
2023-01-23T20:23:52.737Z,102014.38
2023-01-23T20:26:21.349Z,102006.88
2023-01-23T20:28:55.759Z,102001.84
2023-01-23T20:31:23.135Z,102004.69
2023-01-23T20:33:50.191Z,102007.56
2023-01-23T20:36:16.889Z,101999.81
2023-01-23T20:38:43.479Z,102002.56
2023-01-23T20:41:15.553Z,101999.19
2023-01-23T20:43:45.506Z,101999.91
2023-01-23T20:46:14.123Z,102002.91
2023-01-23T20:48:44.280Z,101988.00
2023-01-23T20:51:13.220Z,101988.94
2023-01-23T20:53:40.194Z,101992.84
2023-01-23T20:56:13.664Z,101996.09
2023-01-23T20:59:01.864Z,102005.31
2023-01-23T21:01:58.655Z,102004.47
2023-01-23T21:04:33.932Z,102007.69
2023-01-23T21:07:01.306Z,102004.00
2023-01-23T21:09:27.909Z,102008.75
2023-01-23T21:11:55.062Z,102004.03
2023-01-23T21:14:22.245Z,102004.53
2023-01-23T21:16:48.880Z,102008.56
2023-01-23T21:19:15.816Z,102009.84
2023-01-23T21:21:43.143Z,102004.25
2023-01-23T21:24:09.956Z,101998.78
2023-01-23T21:26:36.779Z,102005.56
2023-01-23T21:29:04.179Z,102009.03
2023-01-23T21:31:33.796Z,102012.63
2023-01-23T21:34:07.777Z,102004.25
2023-01-23T21:36:36.392Z,102007.81
2023-01-23T21:39:03.876Z,102011.50
2023-01-23T21:41:30.728Z,102010.91
2023-01-23T21:43:57.297Z,102011.75
2023-01-23T21:46:23.918Z,102012.22
2023-01-23T21:48:51.923Z,102012.97
2023-01-23T21:51:23.811Z,102015.81
2023-01-23T21:53:50.458Z,102019.25
2023-01-23T21:56:19.934Z,102014.25
2023-01-23T21:58:47.203Z,102011.50
2023-01-23T22:01:39.547Z,102017.69
2023-01-23T22:04:11.226Z,102021.75
2023-01-23T22:06:40.436Z,102009.09
2023-01-23T22:09:07.666Z,102013.38
2023-01-23T22:11:34.356Z,102009.44
2023-01-23T22:14:01.295Z,102017.94
2023-01-23T22:16:46.473Z,102009.84
2023-01-23T22:19:15.326Z,102020.69
2023-01-23T22:21:42.421Z,102019.00
2023-01-23T22:24:09.112Z,102014.59
2023-01-23T22:26:35.793Z,102014.00
2023-01-23T22:29:02.188Z,102020.72
2023-01-23T22:31:31.943Z,102030.59
2023-01-23T22:33:58.507Z,102025.81
2023-01-23T22:36:25.135Z,102026.56
